Aeroporto :
LOGIN :

Iscrizione | Disclaimer

   EN    FR    IT 

 










Sommario :    VFR   VFR Marginale   IFR   IFR Intensivo   IFR Molto Intensivo
Visibilità : 
Base nubi : 
>= 8 km
>= 3000ft
5 / 8 km
1000 / 3000 ft
1500m / 5 km
500 / 1000 ft
800 / 1500m
200 / 500 ft
< 800m
< 200 ft
Simboli :   Temporali  Nebbia  Neve Forte  Precipitazioni Forti  Vento > 20 kt
SIGMETs :   Varie  Temporali  Ghiacco  Turbolenza  Onda orograficha  Ceneri Vulcaniche






- Altitudine del aeroporto : 53 ft
- Codice IATA : HAM


EDDH - Hamburg

ULTIMO METAR :
  • 150520Z 15011KT 9999 BKN045 04/01 Q0991 NOSIG

METARs OBSOLETI :
  • 150450Z 15012KT CAVOK 03/01 Q0992 NOSIG
  • 150420Z 15010KT CAVOK 03/01 Q0992 NOSIG
  • 150350Z 15009KT CAVOK 03/00 Q0993 NOSIG
  • 150320Z 18010KT CAVOK 04/00 Q0994 NOSIG
  • 150250Z 19011KT CAVOK 04/00 Q0994 NOSIG

TAF TAF EDDH
Valido dal 15 a 06 ore il 16 a 12 ore UTC


150500Z 1506/1612 18010KT 9999 SCT025
BECMG 1506/1509 23015G25KT
TEMPO 1506/1509 RA
PROB40
TEMPO 1507/1509 4000 SHRA BKN008 BKN020CB
TEMPO 1509/1515 24020G35KT
BECMG 1516/1519 20012KT
PROB30
TEMPO 1516/1519 3500 SHGS BKN014CB
PROB30
TEMPO 1519/1602 BKN011



MetMap, La meteo Aeronautica in un colpo d'occhio ! - Copyright ORBIFLY Dicembre 2007 - Disclaimer

ORBIFLY MET'MAP TEAM :

Programmazione e sviluppo : Alexandra Zaïnal
Concezione : Baudouin d'Aumeries
Aiuto per la programmazione : Marc-Olivier Méhu
Supporto tecnico e logistico : Manuel Goepfert
Aiuto per la traduzione : Arnaldo La Scala

Contatto : metmap@orbifly.com




FONTI E CREDITI :

   NOAA